createdAt,value
2018-11-29T00:00:49.846Z,24.03
2018-11-29T00:03:17.490Z,21.37
2018-11-29T00:05:51.051Z,21.90
2018-11-29T00:08:20.439Z,22.60
2018-11-29T00:10:48.049Z,23.87
2018-11-29T00:13:15.670Z,23.90
2018-11-29T00:15:43.289Z,24.77
2018-11-29T00:18:10.985Z,21.57
2018-11-29T00:20:38.592Z,25.47
2018-11-29T00:23:06.253Z,24.40
2018-11-29T00:25:33.850Z,21.63
2018-11-29T00:28:01.589Z,23.77
2018-11-29T00:30:29.198Z,23.57
2018-11-29T00:32:56.905Z,23.50
2018-11-29T00:35:24.488Z,20.43
2018-11-29T00:37:52.111Z,22.93
2018-11-29T00:40:21.507Z,22.43
2018-11-29T00:42:49.200Z,24.73
2018-11-29T00:45:18.810Z,25.77
2018-11-29T00:47:46.963Z,24.33
2018-11-29T00:50:15.214Z,24.30
2018-11-29T00:52:43.642Z,24.50
2018-11-29T00:55:15.107Z,22.47
2018-11-29T00:57:42.817Z,21.87
2018-11-29T01:00:13.430Z,23.83
2018-11-29T01:02:41.032Z,22.37
2018-11-29T01:05:08.728Z,23.83
2018-11-29T01:07:43.143Z,22.20
2018-11-29T01:10:12.632Z,24.57
2018-11-29T01:12:40.526Z,24.23
2018-11-29T01:15:09.601Z,22.93
2018-11-29T01:17:37.230Z,17.60
2018-11-29T01:20:07.157Z,21.60
2018-11-29T01:22:34.731Z,22.80
2018-11-29T01:25:02.385Z,24.60
2018-11-29T01:27:30.017Z,24.70
2018-11-29T01:29:57.658Z,26.80
2018-11-29T01:32:25.227Z,22.90
2018-11-29T01:34:52.830Z,25.53
2018-11-29T01:37:20.404Z,22.97
2018-11-29T01:39:47.994Z,24.73
2018-11-29T01:42:15.555Z,21.87
2018-11-29T01:44:43.152Z,23.90
2018-11-29T01:47:10.712Z,21.47
2018-11-29T01:49:38.303Z,22.73
2018-11-29T01:52:05.966Z,24.17
2018-11-29T01:54:33.536Z,24.17
2018-11-29T01:57:01.157Z,20.40
2018-11-29T01:59:28.852Z,20.17
2018-11-29T02:01:56.718Z,25.07
2018-11-29T02:04:24.380Z,20.17
2018-11-29T02:06:52.034Z,23.00
2018-11-29T02:09:19.642Z,22.90
2018-11-29T02:11:47.248Z,22.63
2018-11-29T02:14:14.903Z,20.87
2018-11-29T02:16:42.536Z,21.77
2018-11-29T02:19:10.133Z,24.23
2018-11-29T02:21:37.746Z,23.47
2018-11-29T02:24:05.337Z,23.73
2018-11-29T02:26:32.984Z,24.83
2018-11-29T02:29:00.629Z,24.57
2018-11-29T02:31:32.736Z,21.40
2018-11-29T02:34:00.339Z,25.80
2018-11-29T02:36:27.956Z,23.17
2018-11-29T02:38:55.569Z,21.97
2018-11-29T02:41:23.166Z,21.93
2018-11-29T02:43:50.760Z,21.77
2018-11-29T02:46:18.328Z,20.70
2018-11-29T02:48:45.993Z,28.37
2018-11-29T02:51:13.571Z,20.20
2018-11-29T02:53:41.165Z,23.70
2018-11-29T02:56:08.760Z,22.90
2018-11-29T02:58:36.293Z,21.63
2018-11-29T03:01:03.954Z,21.93
2018-11-29T03:03:31.551Z,23.13
2018-11-29T03:05:59.165Z,19.33
2018-11-29T03:08:26.769Z,21.73
2018-11-29T03:10:54.393Z,21.03
2018-11-29T03:13:22.012Z,21.33
2018-11-29T03:15:49.563Z,20.60
2018-11-29T03:18:17.159Z,21.10
2018-11-29T03:20:44.922Z,21.90
2018-11-29T03:23:12.516Z,21.97
2018-11-29T03:25:40.180Z,20.30
2018-11-29T03:28:07.797Z,21.13
2018-11-29T03:30:35.392Z,17.97
2018-11-29T03:33:02.990Z,21.50
2018-11-29T03:35:30.573Z,21.47
2018-11-29T03:37:58.214Z,20.97
2018-11-29T03:40:25.794Z,21.90
2018-11-29T03:42:53.310Z,21.83
2018-11-29T03:45:20.945Z,18.67
2018-11-29T03:47:48.550Z,21.27
2018-11-29T03:50:17.062Z,20.10
2018-11-29T03:52:44.903Z,21.43
2018-11-29T03:55:12.540Z,23.67
2018-11-29T03:57:40.265Z,20.30
2018-11-29T04:00:14.649Z,21.20
2018-11-29T04:02:42.611Z,20.37
2018-11-29T04:05:10.199Z,23.47
2018-11-29T04:07:37.824Z,24.30
2018-11-29T04:10:07.504Z,21.47
2018-11-29T04:12:35.053Z,22.77
2018-11-29T04:15:02.728Z,20.47
2018-11-29T04:17:30.340Z,21.27
2018-11-29T04:19:57.892Z,19.97
2018-11-29T04:22:25.521Z,18.93
2018-11-29T04:24:53.171Z,23.83
2018-11-29T04:27:20.775Z,20.37
2018-11-29T04:32:44.475Z,20.47
2018-11-29T04:35:12.527Z,19.93
2018-11-29T04:37:40.278Z,20.57
2018-11-29T04:40:14.187Z,17.30
2018-11-29T04:42:41.884Z,24.13
2018-11-29T04:45:10.615Z,19.40
2018-11-29T04:47:38.269Z,22.13
2018-11-29T04:50:06.054Z,20.47
2018-11-29T04:52:34.165Z,25.73
2018-11-29T04:55:01.785Z,20.07
2018-11-29T04:57:29.445Z,22.47
2018-11-29T04:59:57.103Z,24.07
2018-11-29T05:02:24.718Z,21.97
2018-11-29T05:04:52.386Z,20.53
2018-11-29T05:07:19.945Z,23.60
2018-11-29T05:09:47.507Z,18.27
2018-11-29T05:12:15.189Z,20.63
2018-11-29T05:14:42.747Z,18.17
2018-11-29T05:17:10.409Z,21.77
2018-11-29T05:19:37.983Z,19.33
2018-11-29T05:22:05.718Z,16.90
2018-11-29T05:24:33.315Z,22.23
2018-11-29T05:27:00.915Z,19.97
2018-11-29T05:29:28.548Z,18.13
2018-11-29T05:31:56.207Z,18.33
2018-11-29T05:34:23.811Z,20.53
2018-11-29T05:36:51.467Z,22.57
2018-11-29T05:39:19.059Z,21.67
2018-11-29T05:41:46.724Z,20.17
2018-11-29T05:44:14.327Z,17.30
2018-11-29T05:46:42.688Z,20.33
2018-11-29T05:49:09.572Z,19.47
2018-11-29T05:51:37.230Z,18.27
2018-11-29T05:54:05.262Z,20.60
2018-11-29T05:56:32.893Z,23.17
2018-11-29T05:59:00.557Z,19.77
2018-11-29T06:01:44.524Z,20.10
2018-11-29T06:04:12.260Z,18.77
2018-11-29T06:06:39.812Z,21.00
2018-11-29T06:09:09.165Z,23.43
2018-11-29T06:11:37.921Z,21.83
2018-11-29T06:14:06.603Z,24.13
2018-11-29T06:16:34.751Z,25.13
2018-11-29T06:19:02.434Z,24.33
2018-11-29T06:21:30.065Z,22.23
2018-11-29T06:23:57.646Z,21.83
2018-11-29T06:26:25.282Z,21.70
2018-11-29T06:28:52.851Z,24.43
2018-11-29T06:31:20.482Z,24.60
2018-11-29T06:33:48.118Z,23.23
2018-11-29T06:36:15.693Z,24.73
2018-11-29T06:38:43.299Z,30.47
2018-11-29T06:41:10.875Z,24.27
2018-11-29T06:43:38.528Z,21.50
2018-11-29T06:46:06.309Z,22.17
2018-11-29T06:48:33.913Z,23.43
2018-11-29T06:51:01.490Z,22.07
2018-11-29T06:53:34.710Z,23.63
2018-11-29T06:56:02.373Z,25.67
2018-11-29T06:58:30.007Z,22.27
2018-11-29T07:00:57.615Z,23.77
2018-11-29T07:03:28.846Z,23.53
2018-11-29T07:05:52.884Z,23.70
2018-11-29T07:08:20.689Z,21.10
2018-11-29T07:10:48.704Z,23.47
2018-11-29T07:13:16.350Z,21.87
2018-11-29T07:15:43.944Z,21.20
2018-11-29T07:18:11.549Z,22.90
2018-11-29T07:20:39.118Z,26.97
2018-11-29T07:23:06.739Z,26.17
2018-11-29T07:25:34.351Z,27.63
2018-11-29T07:28:01.950Z,24.43
2018-11-29T07:30:29.592Z,26.87
2018-11-29T07:32:57.255Z,28.67
2018-11-29T07:35:24.876Z,23.40
2018-11-29T07:37:52.492Z,22.03
2018-11-29T07:40:20.153Z,24.87
2018-11-29T07:42:49.095Z,24.17
2018-11-29T07:45:17.811Z,24.97
2018-11-29T07:47:45.819Z,22.40
2018-11-29T07:50:21.328Z,24.60
2018-11-29T07:52:49.071Z,25.00
2018-11-29T07:55:17.760Z,25.37
2018-11-29T07:57:46.335Z,25.17
2018-11-29T08:00:15.046Z,26.87
2018-11-29T08:02:42.742Z,30.00
2018-11-29T08:05:11.413Z,29.50
2018-11-29T08:07:40.153Z,25.90
2018-11-29T08:10:09.288Z,23.67
2018-11-29T08:12:37.047Z,28.27
2018-11-29T08:15:06.335Z,25.40
2018-11-29T08:17:33.994Z,22.63
2018-11-29T08:20:01.663Z,24.77
2018-11-29T08:22:29.267Z,23.30
2018-11-29T08:24:56.982Z,25.73
2018-11-29T08:27:24.525Z,25.33
2018-11-29T08:29:52.112Z,23.30
2018-11-29T08:32:19.747Z,23.10
2018-11-29T08:34:47.340Z,20.67
2018-11-29T08:37:14.981Z,21.90
2018-11-29T08:39:42.568Z,20.43
2018-11-29T08:42:10.172Z,23.73
2018-11-29T08:44:37.803Z,17.93
2018-11-29T08:47:05.484Z,18.33
2018-11-29T08:49:33.127Z,20.57
2018-11-29T08:52:00.699Z,18.67
2018-11-29T08:54:28.340Z,19.70
2018-11-29T08:56:55.976Z,19.17
2018-11-29T08:59:23.644Z,23.33
2018-11-29T09:01:51.235Z,19.07
2018-11-29T09:04:18.886Z,19.40
2018-11-29T09:06:46.494Z,18.13
2018-11-29T09:09:14.133Z,18.17
2018-11-29T09:11:41.757Z,17.13
2018-11-29T09:14:09.369Z,15.17
2018-11-29T09:16:36.999Z,18.43
2018-11-29T09:19:04.641Z,17.87
2018-11-29T09:21:32.258Z,22.70
2018-11-29T09:23:59.876Z,17.53
2018-11-29T09:26:27.509Z,18.20
2018-11-29T09:28:55.228Z,18.83
2018-11-29T09:31:22.880Z,21.40
2018-11-29T09:33:50.588Z,17.97
2018-11-29T09:36:18.179Z,20.50
2018-11-29T09:38:45.784Z,24.67
2018-11-29T09:41:13.398Z,21.40
2018-11-29T09:43:41.073Z,20.17
2018-11-29T09:46:08.640Z,20.43
2018-11-29T09:48:36.245Z,20.83
2018-11-29T09:51:03.822Z,19.73
2018-11-29T09:53:33.026Z,17.47
2018-11-29T09:55:59.031Z,19.43
2018-11-29T09:58:26.702Z,17.30
2018-11-29T10:00:54.244Z,20.17
2018-11-29T10:03:21.851Z,20.63
2018-11-29T10:05:49.436Z,17.53
2018-11-29T10:08:17.527Z,18.50
2018-11-29T10:10:45.129Z,18.77
2018-11-29T10:13:12.724Z,17.83
2018-11-29T10:15:40.266Z,18.77
2018-11-29T10:18:08.972Z,16.23
2018-11-29T10:20:36.576Z,15.27
2018-11-29T10:23:04.228Z,19.33
2018-11-29T10:25:31.841Z,16.50
2018-11-29T10:28:01.594Z,16.77
2018-11-29T10:30:32.287Z,11.87
2018-11-29T10:32:59.889Z,12.10
2018-11-29T10:35:27.466Z,11.93
2018-11-29T10:37:55.115Z,13.47
2018-11-29T10:40:22.737Z,10.60
2018-11-29T10:42:54.132Z,11.53
2018-11-29T10:45:21.693Z,13.27
2018-11-29T10:47:52.560Z,11.83
2018-11-29T10:50:18.557Z,10.20
2018-11-29T10:52:46.205Z,11.60
2018-11-29T10:55:16.818Z,13.30
2018-11-29T10:57:44.538Z,13.20
2018-11-29T11:00:21.286Z,10.80
2018-11-29T11:03:22.071Z,11.80
2018-11-29T11:05:51.619Z,11.03
2018-11-29T11:08:19.691Z,12.67
2018-11-29T11:10:47.368Z,10.67
2018-11-29T11:13:14.970Z,13.57
2018-11-29T11:15:42.602Z,13.80
2018-11-29T11:18:11.317Z,15.33
2018-11-29T11:20:39.179Z,15.37
2018-11-29T11:23:06.998Z,14.77
2018-11-29T11:25:34.587Z,10.33
2018-11-29T11:28:02.753Z,11.00
2018-11-29T11:30:30.401Z,15.90
2018-11-29T11:32:58.017Z,14.20
2018-11-29T11:35:28.927Z,21.37
2018-11-29T11:37:56.526Z,17.50
2018-11-29T11:40:24.197Z,20.97
2018-11-29T11:42:52.463Z,26.37
2018-11-29T11:45:20.547Z,18.80
2018-11-29T11:47:48.232Z,18.30
2018-11-29T11:50:16.989Z,18.27
2018-11-29T11:52:44.611Z,19.13
2018-11-29T11:55:18.711Z,16.87
2018-11-29T11:57:40.565Z,18.60
2018-11-29T12:00:15.039Z,28.93
2018-11-29T12:02:43.260Z,22.53
2018-11-29T12:05:11.079Z,19.97
2018-11-29T12:07:38.749Z,18.70
2018-11-29T12:10:09.175Z,19.23
2018-11-29T12:12:36.822Z,20.30
2018-11-29T12:15:06.429Z,18.13
2018-11-29T12:17:34.078Z,24.00
2018-11-29T12:20:01.772Z,20.30
2018-11-29T12:22:29.444Z,14.83
2018-11-29T12:24:57.015Z,17.23
2018-11-29T12:27:24.644Z,18.70
2018-11-29T12:29:52.270Z,22.33
2018-11-29T12:32:19.893Z,17.93
2018-11-29T12:34:47.542Z,19.67
2018-11-29T12:37:15.131Z,19.17
2018-11-29T12:39:42.732Z,17.30
2018-11-29T12:42:10.348Z,22.03
2018-11-29T12:44:38.011Z,16.07
2018-11-29T12:47:05.705Z,27.47
2018-11-29T12:49:33.331Z,20.70
2018-11-29T12:52:00.959Z,20.27
2018-11-29T12:54:28.605Z,12.13
2018-11-29T12:56:56.215Z,13.63
2018-11-29T12:59:23.761Z,16.83
2018-11-29T13:01:51.371Z,17.20
2018-11-29T13:04:18.991Z,20.30
2018-11-29T13:06:46.620Z,16.07
2018-11-29T13:09:14.234Z,16.50
2018-11-29T13:11:41.840Z,18.37
2018-11-29T13:14:09.534Z,11.50
2018-11-29T13:16:37.059Z,14.00
2018-11-29T13:19:04.741Z,11.27
2018-11-29T13:21:32.466Z,8.83
2018-11-29T13:24:00.329Z,8.60
2018-11-29T13:26:27.670Z,8.93
2018-11-29T13:28:55.331Z,9.87
2018-11-29T13:31:22.873Z,9.30
2018-11-29T13:33:50.452Z,14.97
2018-11-29T13:36:18.220Z,13.97
2018-11-29T13:38:45.718Z,15.73
2018-11-29T13:41:13.351Z,18.63
2018-11-29T13:43:41.000Z,13.47
2018-11-29T13:46:08.732Z,12.57
2018-11-29T13:48:36.379Z,12.77
2018-11-29T13:51:04.104Z,11.00
2018-11-29T13:53:31.763Z,8.20
2018-11-29T13:55:59.299Z,11.17
2018-11-29T13:58:26.915Z,8.83
2018-11-29T14:00:54.431Z,11.23
2018-11-29T14:03:22.075Z,8.53
2018-11-29T14:05:49.663Z,13.43
2018-11-29T14:08:17.276Z,13.00
2018-11-29T14:10:44.932Z,13.63
2018-11-29T14:13:12.477Z,8.80
2018-11-29T14:15:40.116Z,10.03
2018-11-29T14:18:07.755Z,8.00
2018-11-29T14:20:35.553Z,9.77
2018-11-29T14:23:03.015Z,7.70
2018-11-29T14:25:30.624Z,10.63
2018-11-29T14:27:58.210Z,8.40
2018-11-29T14:30:26.762Z,13.30
2018-11-29T14:32:58.128Z,8.27
2018-11-29T14:35:25.822Z,10.43
2018-11-29T14:37:53.411Z,11.97
2018-11-29T14:40:23.072Z,9.67
2018-11-29T14:42:50.723Z,9.03
2018-11-29T14:45:20.455Z,8.83
2018-11-29T14:47:48.062Z,14.47
2018-11-29T14:50:18.262Z,10.77
2018-11-29T14:52:45.859Z,10.67
2018-11-29T14:55:13.425Z,10.13
2018-11-29T14:57:41.073Z,10.50
2018-11-29T15:00:10.307Z,10.10
2018-11-29T15:02:37.959Z,10.33
2018-11-29T15:05:12.194Z,10.10
2018-11-29T15:07:39.877Z,15.03
2018-11-29T15:10:08.582Z,14.03
2018-11-29T15:12:36.230Z,13.63
2018-11-29T15:15:04.187Z,12.17
2018-11-29T15:17:31.818Z,9.53
2018-11-29T15:19:59.471Z,11.20
2018-11-29T15:22:27.040Z,10.93
2018-11-29T15:24:54.591Z,12.60
2018-11-29T15:27:22.242Z,13.23
2018-11-29T15:29:49.825Z,13.17
2018-11-29T15:32:17.442Z,11.10
2018-11-29T15:34:44.967Z,14.07
2018-11-29T15:37:12.479Z,13.07
2018-11-29T15:39:40.062Z,14.60
2018-11-29T15:42:07.656Z,13.83
2018-11-29T15:44:35.257Z,20.93
2018-11-29T15:47:02.924Z,31.57
2018-11-29T15:49:30.545Z,43.20
2018-11-29T15:51:58.167Z,28.47
2018-11-29T15:54:25.757Z,25.43
2018-11-29T15:56:53.276Z,19.37
2018-11-29T15:59:20.895Z,18.43
2018-11-29T16:01:48.471Z,13.10
2018-11-29T16:04:16.041Z,14.23
2018-11-29T16:06:43.665Z,17.93
2018-11-29T16:09:11.289Z,20.13
2018-11-29T16:11:38.916Z,17.97
2018-11-29T16:14:06.582Z,13.70
2018-11-29T16:16:34.183Z,14.77
2018-11-29T16:19:03.954Z,21.40
2018-11-29T16:21:29.382Z,29.00
2018-11-29T16:23:56.961Z,24.97
2018-11-29T16:26:24.482Z,22.27
2018-11-29T16:28:52.121Z,18.67
2018-11-29T16:31:19.678Z,39.83
2018-11-29T16:33:47.319Z,33.03
2018-11-29T16:36:14.923Z,29.93
2018-11-29T16:38:42.537Z,22.27
2018-11-29T16:41:10.127Z,13.73
2018-11-29T16:43:37.740Z,16.43
2018-11-29T16:46:05.392Z,30.87
2018-11-29T16:48:32.966Z,15.17
2018-11-29T16:51:00.604Z,17.37
2018-11-29T16:53:28.250Z,16.40
2018-11-29T16:55:55.878Z,15.57
2018-11-29T16:58:25.461Z,13.90
2018-11-29T17:00:53.098Z,12.80
2018-11-29T17:03:20.706Z,13.60
2018-11-29T17:05:48.366Z,14.37
2018-11-29T17:08:16.082Z,15.97
2018-11-29T17:10:45.176Z,15.30
2018-11-29T17:13:15.597Z,16.93
2018-11-29T17:15:43.252Z,12.03
2018-11-29T17:18:10.905Z,15.33
2018-11-29T17:20:38.547Z,16.57
2018-11-29T17:23:07.713Z,13.63
2018-11-29T17:25:35.270Z,11.97
2018-11-29T17:28:02.978Z,12.20
2018-11-29T17:30:30.724Z,13.03
2018-11-29T17:32:58.736Z,13.67
2018-11-29T17:35:26.378Z,12.23
2018-11-29T17:37:55.434Z,14.40
2018-11-29T17:40:23.147Z,14.83
2018-11-29T17:42:51.806Z,16.13
2018-11-29T17:45:22.509Z,28.23
2018-11-29T17:47:51.406Z,22.67
2018-11-29T17:50:20.442Z,20.57
2018-11-29T17:52:47.979Z,23.90
2018-11-29T17:55:15.596Z,17.90
2018-11-29T17:57:43.245Z,22.27
2018-11-29T18:00:15.614Z,19.67
2018-11-29T18:02:43.288Z,20.17
2018-11-29T18:05:10.907Z,20.73
2018-11-29T18:07:38.615Z,20.57
2018-11-29T18:10:09.116Z,16.63
2018-11-29T18:12:36.713Z,18.70
2018-11-29T18:15:07.476Z,17.67
2018-11-29T18:17:35.130Z,16.30
2018-11-29T18:20:02.851Z,16.73
2018-11-29T18:22:30.389Z,19.17
2018-11-29T18:24:58.040Z,17.03
2018-11-29T18:27:25.673Z,18.67
2018-11-29T18:29:53.341Z,17.37
2018-11-29T18:32:20.975Z,17.57
2018-11-29T18:34:48.595Z,18.23
2018-11-29T18:37:16.295Z,20.90
2018-11-29T18:39:43.907Z,19.53
2018-11-29T18:42:11.503Z,17.40
2018-11-29T18:44:39.111Z,15.47
2018-11-29T18:47:06.790Z,17.33
2018-11-29T18:49:34.385Z,17.60
2018-11-29T18:52:02.072Z,20.70
2018-11-29T18:54:29.707Z,24.63
2018-11-29T18:56:57.255Z,19.00
2018-11-29T18:59:24.867Z,22.60
2018-11-29T19:01:52.505Z,20.20
2018-11-29T19:04:20.178Z,17.63
2018-11-29T19:06:47.781Z,23.90
2018-11-29T19:09:15.400Z,20.43
2018-11-29T19:11:43.014Z,18.20
2018-11-29T19:14:10.655Z,16.07
2018-11-29T19:16:38.303Z,19.13
2018-11-29T19:19:05.949Z,18.03
2018-11-29T19:21:33.519Z,13.97
2018-11-29T19:24:01.182Z,19.67
2018-11-29T19:26:28.795Z,19.00
2018-11-29T19:28:56.379Z,24.80
2018-11-29T19:31:23.967Z,20.67
2018-11-29T19:33:51.609Z,21.27
2018-11-29T19:36:19.203Z,23.93
2018-11-29T19:38:46.780Z,19.23
2018-11-29T19:41:14.456Z,19.33
2018-11-29T19:43:42.019Z,18.50
2018-11-29T19:46:09.649Z,21.50
2018-11-29T19:48:37.264Z,18.33
2018-11-29T19:51:05.410Z,17.50
2018-11-29T19:53:32.989Z,19.00
2018-11-29T19:56:01.608Z,22.73
2018-11-29T19:58:29.163Z,19.10
2018-11-29T20:00:56.753Z,20.57
2018-11-29T20:03:24.402Z,18.93
2018-11-29T20:05:52.006Z,21.60
2018-11-29T20:08:20.566Z,20.43
2018-11-29T20:10:48.201Z,18.30
2018-11-29T20:13:15.870Z,19.53
2018-11-29T20:15:48.576Z,19.83
2018-11-29T20:18:16.202Z,19.00
2018-11-29T20:20:43.964Z,21.67
2018-11-29T20:23:12.346Z,22.07
2018-11-29T20:25:41.441Z,21.60
2018-11-29T20:28:09.028Z,22.83
2018-11-29T20:30:36.630Z,17.07
2018-11-29T20:33:04.561Z,20.87
2018-11-29T20:35:32.135Z,20.67
2018-11-29T20:37:59.798Z,21.73
2018-11-29T20:40:30.082Z,20.93
2018-11-29T20:42:58.957Z,18.60
2018-11-29T20:45:34.882Z,19.60
2018-11-29T20:48:09.233Z,20.97
2018-11-29T20:50:36.859Z,20.87
2018-11-29T20:53:05.658Z,21.57
2018-11-29T20:55:33.291Z,21.00
2018-11-29T20:58:00.897Z,19.13
2018-11-29T21:00:28.571Z,26.17
2018-11-29T21:02:56.184Z,23.13
2018-11-29T21:05:24.385Z,22.47
2018-11-29T21:07:53.727Z,21.10
2018-11-29T21:10:23.377Z,25.13
2018-11-29T21:12:51.019Z,24.43
2018-11-29T21:15:18.679Z,26.57
2018-11-29T21:17:46.265Z,21.67
2018-11-29T21:20:15.098Z,21.20
2018-11-29T21:22:44.174Z,19.67
2018-11-29T21:25:13.386Z,22.33
2018-11-29T21:27:41.008Z,18.70
2018-11-29T21:30:10.649Z,22.37
2018-11-29T21:32:38.274Z,20.87
2018-11-29T21:35:06.315Z,17.93
2018-11-29T21:37:34.493Z,28.90
2018-11-29T21:40:02.280Z,21.13
2018-11-29T21:42:29.817Z,22.40
2018-11-29T21:44:57.469Z,22.70
2018-11-29T21:47:25.038Z,21.83
2018-11-29T21:49:52.676Z,21.03
2018-11-29T21:52:20.281Z,21.07
2018-11-29T21:54:47.865Z,22.07
2018-11-29T21:57:15.517Z,24.10
2018-11-29T21:59:43.095Z,25.17
2018-11-29T22:02:10.961Z,25.87
2018-11-29T22:04:38.588Z,22.03
2018-11-29T22:07:06.206Z,22.77
2018-11-29T22:09:33.888Z,23.53
2018-11-29T22:12:01.494Z,23.13
2018-11-29T22:14:29.088Z,22.30
2018-11-29T22:16:56.698Z,21.10
2018-11-29T22:19:24.278Z,24.47
2018-11-29T22:21:51.879Z,22.10
2018-11-29T22:24:19.497Z,23.03
2018-11-29T22:26:47.082Z,24.13
2018-11-29T22:29:14.647Z,25.53
2018-11-29T22:31:42.226Z,24.70
2018-11-29T22:34:09.883Z,26.27
2018-11-29T22:36:37.469Z,22.80
2018-11-29T22:39:07.826Z,34.67
2018-11-29T22:41:35.402Z,38.40
2018-11-29T22:44:02.979Z,29.23
2018-11-29T22:46:30.627Z,24.80
2018-11-29T22:48:58.242Z,21.50
2018-11-29T22:51:25.842Z,22.63
2018-11-29T22:53:53.458Z,27.77
2018-11-29T22:56:22.296Z,21.93
2018-11-29T22:58:48.727Z,25.60
2018-11-29T23:01:22.049Z,19.40
2018-11-29T23:03:49.727Z,20.83
2018-11-29T23:06:17.285Z,19.00
2018-11-29T23:08:44.904Z,21.00
2018-11-29T23:11:12.532Z,20.63
2018-11-29T23:13:40.214Z,20.93
2018-11-29T23:16:07.851Z,19.07
2018-11-29T23:18:35.481Z,18.70
2018-11-29T23:21:03.097Z,21.17
2018-11-29T23:23:30.742Z,17.80
2018-11-29T23:25:58.391Z,19.33
2018-11-29T23:28:25.962Z,18.50
2018-11-29T23:30:53.649Z,17.07
2018-11-29T23:33:21.244Z,18.87
2018-11-29T23:35:48.855Z,18.50
2018-11-29T23:38:16.459Z,16.97
2018-11-29T23:40:44.213Z,20.07
2018-11-29T23:43:11.828Z,18.00
2018-11-29T23:45:39.440Z,19.17
2018-11-29T23:48:12.878Z,22.73
2018-11-29T23:50:40.517Z,20.23
2018-11-29T23:53:08.226Z,22.37
2018-11-29T23:55:35.836Z,26.13
2018-11-29T23:58:03.466Z,23.13
